sensor_id;sensor_type;location;lat;lon;timestamp;temperature;humidity
55054;DHT22;40954;45.668;18.980;2023-06-22T00:01:52;665.90;2432.00
55054;DHT22;40954;45.668;18.980;2023-06-22T00:04:18;665.90;2432.00
55054;DHT22;40954;45.668;18.980;2023-06-22T00:06:44;665.90;2432.00
55054;DHT22;40954;45.668;18.980;2023-06-22T00:09:09;665.90;2432.00
55054;DHT22;40954;45.668;18.980;2023-06-22T00:11:36;666.00;2432.00
55054;DHT22;40954;45.668;18.980;2023-06-22T00:14:03;666.10;2432.00
55054;DHT22;40954;45.668;18.980;2023-06-22T00:16:29;666.10;2432.00
55054;DHT22;40954;45.668;18.980;2023-06-22T00:18:55;666.10;2432.00
55054;DHT22;40954;45.668;18.980;2023-06-22T00:21:20;666.10;2432.00
55054;DHT22;40954;45.668;18.980;2023-06-22T00:23:46;666.10;2432.00
55054;DHT22;40954;45.668;18.980;2023-06-22T00:26:13;666.20;2432.00
55054;DHT22;40954;45.668;18.980;2023-06-22T00:28:39;666.30;2432.00
55054;DHT22;40954;45.668;18.980;2023-06-22T00:31:05;666.20;2432.00
55054;DHT22;40954;45.668;18.980;2023-06-22T00:33:30;666.40;2432.00
55054;DHT22;40954;45.668;18.980;2023-06-22T00:35:57;691.20;2432.00
55054;DHT22;40954;45.668;18.980;2023-06-22T00:38:23;691.20;2432.00
55054;DHT22;40954;45.668;18.980;2023-06-22T00:40:49;666.50;2432.00
55054;DHT22;40954;45.668;18.980;2023-06-22T00:43:14;666.40;2432.00
55054;DHT22;40954;45.668;18.980;2023-06-22T00:45:40;691.20;2432.00
55054;DHT22;40954;45.668;18.980;2023-06-22T00:48:06;666.50;2432.00
55054;DHT22;40954;45.668;18.980;2023-06-22T00:50:33;666.40;2432.00
55054;DHT22;40954;45.668;18.980;2023-06-22T00:53:08;666.40;2432.00
55054;DHT22;40954;45.668;18.980;2023-06-22T00:55:41;666.20;2432.00
55054;DHT22;40954;45.668;18.980;2023-06-22T00:58:09;666.30;2432.00
55054;DHT22;40954;45.668;18.980;2023-06-22T01:00:37;666.50;2432.00
55054;DHT22;40954;45.668;18.980;2023-06-22T01:03:03;691.20;2432.00
55054;DHT22;40954;45.668;18.980;2023-06-22T01:05:29;691.20;2432.00
55054;DHT22;40954;45.668;18.980;2023-06-22T01:08:03;691.20;2432.00
55054;DHT22;40954;45.668;18.980;2023-06-22T01:10:39;691.30;2432.00
55054;DHT22;40954;45.668;18.980;2023-06-22T01:13:11;691.30;2432.00
55054;DHT22;40954;45.668;18.980;2023-06-22T01:16:07;691.20;2432.00
55054;DHT22;40954;45.668;18.980;2023-06-22T01:18:32;691.30;2432.00
55054;DHT22;40954;45.668;18.980;2023-06-22T01:21:03;691.20;2432.00
55054;DHT22;40954;45.668;18.980;2023-06-22T01:26:41;666.50;2432.00
55054;DHT22;40954;45.668;18.980;2023-06-22T01:29:09;666.50;2432.00
55054;DHT22;40954;45.668;18.980;2023-06-22T01:31:38;666.50;2432.00
55054;DHT22;40954;45.668;18.980;2023-06-22T01:34:06;666.30;2432.00
55054;DHT22;40954;45.668;18.980;2023-06-22T01:36:33;666.30;2432.00
55054;DHT22;40954;45.668;18.980;2023-06-22T01:39:00;666.40;2432.00
55054;DHT22;40954;45.668;18.980;2023-06-22T01:41:29;666.30;2432.00
55054;DHT22;40954;45.668;18.980;2023-06-22T01:43:56;666.20;2432.00
55054;DHT22;40954;45.668;18.980;2023-06-22T01:46:22;666.10;2432.00
55054;DHT22;40954;45.668;18.980;2023-06-22T01:48:49;665.80;2432.00
55054;DHT22;40954;45.668;18.980;2023-06-22T01:51:16;665.90;2432.00
55054;DHT22;40954;45.668;18.980;2023-06-22T01:53:42;665.90;2432.00
55054;DHT22;40954;45.668;18.980;2023-06-22T01:56:08;665.90;2432.00
55054;DHT22;40954;45.668;18.980;2023-06-22T01:58:36;665.90;2432.00
55054;DHT22;40954;45.668;18.980;2023-06-22T02:03:35;665.80;2432.00
55054;DHT22;40954;45.668;18.980;2023-06-22T02:06:16;665.60;2432.00
55054;DHT22;40954;45.668;18.980;2023-06-22T02:08:53;665.60;2432.00
55054;DHT22;40954;45.668;18.980;2023-06-22T02:11:21;665.60;2432.00
55054;DHT22;40954;45.668;18.980;2023-06-22T02:13:48;665.60;2432.00
55054;DHT22;40954;45.668;18.980;2023-06-22T02:16:15;665.70;2432.00
55054;DHT22;40954;45.668;18.980;2023-06-22T02:18:51;665.70;2432.00
55054;DHT22;40954;45.668;18.980;2023-06-22T02:21:21;665.60;2432.00
55054;DHT22;40954;45.668;18.980;2023-06-22T02:23:47;665.60;2432.00
55054;DHT22;40954;45.668;18.980;2023-06-22T02:26:15;665.60;2432.00
55054;DHT22;40954;45.668;18.980;2023-06-22T02:28:41;640.90;2432.00
55054;DHT22;40954;45.668;18.980;2023-06-22T02:31:07;640.80;2432.00
55054;DHT22;40954;45.668;18.980;2023-06-22T02:33:32;640.60;2432.00
55054;DHT22;40954;45.668;18.980;2023-06-22T02:35:58;640.50;2432.00
55054;DHT22;40954;45.668;18.980;2023-06-22T02:38:24;640.50;2432.00
55054;DHT22;40954;45.668;18.980;2023-06-22T02:40:50;640.60;2432.00
55054;DHT22;40954;45.668;18.980;2023-06-22T02:43:16;640.60;2432.00
55054;DHT22;40954;45.668;18.980;2023-06-22T02:45:42;640.70;2432.00
55054;DHT22;40954;45.668;18.980;2023-06-22T02:48:08;640.80;2432.00
55054;DHT22;40954;45.668;18.980;2023-06-22T02:50:33;665.60;2432.00
55054;DHT22;40954;45.668;18.980;2023-06-22T02:52:59;665.60;2432.00
55054;DHT22;40954;45.668;18.980;2023-06-22T02:55:25;665.60;2432.00
55054;DHT22;40954;45.668;18.980;2023-06-22T02:57:50;640.90;2432.00
55054;DHT22;40954;45.668;18.980;2023-06-22T03:00:19;665.60;2432.00
55054;DHT22;40954;45.668;18.980;2023-06-22T03:02:48;665.60;2432.00
55054;DHT22;40954;45.668;18.980;2023-06-22T03:05:15;640.90;2432.00
55054;DHT22;40954;45.668;18.980;2023-06-22T03:07:44;665.90;2432.00
55054;DHT22;40954;45.668;18.980;2023-06-22T03:10:10;666.00;2432.00
55054;DHT22;40954;45.668;18.980;2023-06-22T03:12:40;665.80;2432.00
55054;DHT22;40954;45.668;18.980;2023-06-22T03:15:07;665.80;2432.00
55054;DHT22;40954;45.668;18.980;2023-06-22T03:17:35;665.80;2432.00
55054;DHT22;40954;45.668;18.980;2023-06-22T03:20:01;666.00;2432.00
55054;DHT22;40954;45.668;18.980;2023-06-22T08:11:09;794.10;2022.40
55054;DHT22;40954;45.668;18.980;2023-06-22T08:13:35;794.00;1996.80
55054;DHT22;40954;45.668;18.980;2023-06-22T08:16:01;794.00;2048.00
55054;DHT22;40954;45.668;18.980;2023-06-22T10:25:37;1050.40;1228.80
55054;DHT22;40954;45.668;18.980;2023-06-22T10:28:03;1050.40;1203.20
55054;DHT22;40954;45.668;18.980;2023-06-22T17:40:48;845.60;1587.20
55054;DHT22;40954;45.668;18.980;2023-06-22T17:43:13;845.10;1638.40
55054;DHT22;40954;45.668;18.980;2023-06-22T17:45:43;844.80;1689.60
55054;DHT22;40954;45.668;18.980;2023-06-22T17:50:41;820.10;1689.60
55054;DHT22;40954;45.668;18.980;2023-06-22T17:53:12;819.70;1715.20
55054;DHT22;40954;45.668;18.980;2023-06-22T17:55:38;819.70;1715.20
55054;DHT22;40954;45.668;18.980;2023-06-22T17:58:04;819.50;1740.80
55054;DHT22;40954;45.668;18.980;2023-06-22T18:02:57;819.40;1740.80
55054;DHT22;40954;45.668;18.980;2023-06-22T18:05:33;819.30;1766.40
55054;DHT22;40954;45.668;18.980;2023-06-22T18:08:00;819.20;1766.40
55054;DHT22;40954;45.668;18.980;2023-06-22T18:10:28;819.20;1792.00
55054;DHT22;40954;45.668;18.980;2023-06-22T19:17:41;768.90;1971.20
55054;DHT22;40954;45.668;18.980;2023-06-22T19:20:06;768.80;1971.20
55054;DHT22;40954;45.668;18.980;2023-06-22T19:22:55;768.80;1996.80
55054;DHT22;40954;45.668;18.980;2023-06-22T19:25:25;768.60;2022.40
55054;DHT22;40954;45.668;18.980;2023-06-22T19:27:52;768.50;2073.60
55054;DHT22;40954;45.668;18.980;2023-06-22T19:54:52;768.30;2278.40
55054;DHT22;40954;45.668;18.980;2023-06-22T19:57:18;768.30;2329.60
55054;DHT22;40954;45.668;18.980;2023-06-22T19:59:44;768.30;2329.60
55054;DHT22;40954;45.668;18.980;2023-06-22T20:02:11;743.20;2380.80
55054;DHT22;40954;45.668;18.980;2023-06-22T20:04:38;743.20;2355.20
55054;DHT22;40954;45.668;18.980;2023-06-22T20:07:06;743.10;2380.80
55054;DHT22;40954;45.668;18.980;2023-06-22T20:09:32;743.10;2406.40
55054;DHT22;40954;45.668;18.980;2023-06-22T20:11:58;743.00;2432.00
